createdAt,value
2019-06-20T00:00:33.697Z,24.07
2019-06-20T00:03:05.720Z,23.98
2019-06-20T00:05:37.605Z,23.99
2019-06-20T00:08:08.286Z,24.05
2019-06-20T00:10:39.138Z,24.06
2019-06-20T00:13:09.885Z,24.08
2019-06-20T00:15:40.787Z,24.02
2019-06-20T00:18:11.560Z,24.02
2019-06-20T00:20:43.372Z,24.01
2019-06-20T00:23:14.142Z,23.93
2019-06-20T00:25:44.907Z,23.99
2019-06-20T00:28:15.593Z,24.02
2019-06-20T00:30:46.360Z,23.97
2019-06-20T00:33:17.039Z,23.95
2019-06-20T00:35:47.739Z,23.90
2019-06-20T00:38:18.430Z,23.80
2019-06-20T00:40:49.098Z,23.71
2019-06-20T00:43:19.796Z,23.57
2019-06-20T00:45:51.554Z,23.60
2019-06-20T00:48:22.297Z,23.62
2019-06-20T00:50:52.980Z,23.53
2019-06-20T00:53:23.740Z,23.33
2019-06-20T00:55:54.516Z,23.46
2019-06-20T00:58:25.709Z,23.59
2019-06-20T01:00:56.393Z,23.56
2019-06-20T01:03:27.114Z,23.56
2019-06-20T01:05:57.795Z,23.54
2019-06-20T01:08:30.389Z,23.59
2019-06-20T01:11:01.173Z,23.54
2019-06-20T01:13:34.238Z,23.65
2019-06-20T01:16:05.835Z,23.59
2019-06-20T01:18:36.519Z,23.58
2019-06-20T01:21:08.597Z,23.53
2019-06-20T01:23:39.287Z,23.54
2019-06-20T01:26:10.765Z,23.52
2019-06-20T01:28:41.658Z,23.55
2019-06-20T01:31:12.643Z,23.61
2019-06-20T01:33:43.355Z,23.62
2019-06-20T01:36:14.039Z,23.51
2019-06-20T01:38:44.827Z,23.52
2019-06-20T01:41:15.567Z,23.54
2019-06-20T01:43:50.408Z,23.55
2019-06-20T01:46:18.693Z,23.49
2019-06-20T01:48:49.388Z,23.47
2019-06-20T01:51:21.043Z,23.48
2019-06-20T01:53:53.601Z,23.49
2019-06-20T01:56:24.386Z,23.37
2019-06-20T01:58:55.309Z,23.25
2019-06-20T02:01:25.983Z,23.35
2019-06-20T02:03:57.897Z,23.31
2019-06-20T02:06:28.746Z,23.30
2019-06-20T02:08:59.528Z,23.23
2019-06-20T02:11:32.202Z,23.21
2019-06-20T02:14:07.257Z,23.28
2019-06-20T02:16:35.690Z,23.31
2019-06-20T02:19:06.587Z,23.37
2019-06-20T02:21:37.370Z,23.37
2019-06-20T02:24:08.081Z,23.42
2019-06-20T02:26:38.792Z,23.38
2019-06-20T02:29:09.462Z,23.37
2019-06-20T02:31:40.142Z,23.24
2019-06-20T02:34:10.828Z,23.19
2019-06-20T02:36:41.645Z,23.16
2019-06-20T02:39:12.315Z,23.11
2019-06-20T02:41:43.023Z,23.08
2019-06-20T02:44:29.024Z,23.19
2019-06-20T02:46:46.060Z,23.12
2019-06-20T02:49:16.914Z,23.14
2019-06-20T02:51:48.489Z,23.27
2019-06-20T02:54:19.303Z,23.24
2019-06-20T02:56:50.102Z,23.18
2019-06-20T02:59:20.777Z,23.05
2019-06-20T03:01:51.576Z,22.93
2019-06-20T03:04:22.367Z,22.94
2019-06-20T03:06:53.212Z,23.11
2019-06-20T03:09:23.977Z,23.06
2019-06-20T03:11:54.653Z,23.06
2019-06-20T03:14:25.342Z,23.09
2019-06-20T03:16:56.028Z,23.06
2019-06-20T03:19:26.714Z,22.88
2019-06-20T03:21:57.388Z,22.72
2019-06-20T03:24:28.062Z,22.62
2019-06-20T03:26:58.742Z,22.56
2019-06-20T03:29:29.864Z,22.55
2019-06-20T03:32:00.640Z,22.62
2019-06-20T03:34:31.403Z,22.80
2019-06-20T03:37:02.103Z,22.90
2019-06-20T03:39:33.566Z,22.93
2019-06-20T03:42:04.241Z,23.07
2019-06-20T03:44:35.311Z,22.97
2019-06-20T03:47:06.871Z,22.97
2019-06-20T03:49:40.371Z,22.96
2019-06-20T03:52:12.850Z,22.99
2019-06-20T03:54:45.421Z,22.85
2019-06-20T03:57:16.191Z,22.87
2019-06-20T03:59:46.934Z,23.03
2019-06-20T04:02:18.129Z,23.14
2019-06-20T04:04:52.694Z,23.26
2019-06-20T04:07:23.366Z,23.34
2019-06-20T04:09:54.059Z,23.49
2019-06-20T04:12:26.568Z,23.58
2019-06-20T04:14:59.241Z,23.52
2019-06-20T04:17:31.790Z,23.69
2019-06-20T04:20:02.715Z,23.73
2019-06-20T04:22:33.500Z,23.78
2019-06-20T04:25:05.899Z,23.84
2019-06-20T04:27:36.592Z,23.84
2019-06-20T04:30:08.991Z,23.83
2019-06-20T04:32:42.202Z,23.90
2019-06-20T04:35:13.192Z,24.07
2019-06-20T04:37:43.971Z,24.18
2019-06-20T04:40:15.909Z,24.23
2019-06-20T04:42:46.606Z,24.29
2019-06-20T04:45:34.230Z,24.53
2019-06-20T04:47:52.102Z,24.63
2019-06-20T04:50:22.768Z,24.76
2019-06-20T04:52:53.688Z,24.88
2019-06-20T04:55:24.468Z,24.96
2019-06-20T04:57:55.152Z,25.05
2019-06-20T05:00:26.002Z,25.16
2019-06-20T05:02:57.200Z,25.16
2019-06-20T05:05:27.965Z,25.12
2019-06-20T05:07:59.867Z,25.20
2019-06-20T05:10:30.686Z,25.25
2019-06-20T05:13:01.425Z,25.32
2019-06-20T05:15:32.125Z,25.40
2019-06-20T05:18:02.784Z,25.42
2019-06-20T05:20:34.522Z,25.51
2019-06-20T05:23:05.705Z,26.39
2019-06-20T05:25:36.458Z,26.50
2019-06-20T05:28:07.189Z,26.16
2019-06-20T05:30:38.033Z,26.20
2019-06-20T05:33:08.808Z,26.57
2019-06-20T05:35:39.542Z,29.55
2019-06-20T05:38:10.451Z,31.68
2019-06-20T05:40:41.275Z,33.07
2019-06-20T05:43:12.048Z,34.18
2019-06-20T05:45:46.191Z,35.23
2019-06-20T05:48:15.304Z,36.25
2019-06-20T05:50:45.984Z,36.54
2019-06-20T05:53:16.688Z,37.02
2019-06-20T05:55:47.391Z,37.42
2019-06-20T05:58:18.332Z,37.62
2019-06-20T06:00:49.084Z,37.56
2019-06-20T06:03:19.750Z,37.61
2019-06-20T06:05:50.435Z,37.94
2019-06-20T06:08:21.097Z,38.25
2019-06-20T06:10:51.843Z,38.51
2019-06-20T06:13:22.511Z,38.59
2019-06-20T06:15:53.191Z,38.47
2019-06-20T06:18:23.874Z,38.72
2019-06-20T06:20:54.587Z,38.83
2019-06-20T06:23:25.304Z,39.07
2019-06-20T06:25:58.790Z,38.99
2019-06-20T06:28:29.789Z,39.29
2019-06-20T06:31:00.573Z,39.33
2019-06-20T06:33:31.371Z,39.08
2019-06-20T06:36:02.045Z,39.38
2019-06-20T06:38:32.973Z,38.99
2019-06-20T06:41:03.630Z,39.16
2019-06-20T06:43:41.423Z,39.29
2019-06-20T06:46:07.751Z,39.42
2019-06-20T06:48:38.522Z,39.32
2019-06-20T06:51:09.741Z,38.97
2019-06-20T06:53:41.095Z,38.89
2019-06-20T06:56:12.653Z,39.10
2019-06-20T06:58:43.536Z,39.15
2019-06-20T07:01:14.224Z,39.31
2019-06-20T07:03:45.314Z,39.04
2019-06-20T07:06:19.310Z,39.16
2019-06-20T07:08:50.992Z,38.93
2019-06-20T07:11:22.633Z,39.00
2019-06-20T07:13:53.611Z,38.85
2019-06-20T07:16:26.129Z,38.88
2019-06-20T07:18:57.218Z,38.78
2019-06-20T07:21:28.378Z,38.58
2019-06-20T07:24:00.186Z,38.48
2019-06-20T07:26:33.761Z,38.40
2019-06-20T07:29:05.647Z,38.58
2019-06-20T07:31:36.950Z,38.76
2019-06-20T07:34:08.102Z,38.59
2019-06-20T07:36:38.979Z,38.48
2019-06-20T07:39:10.248Z,38.65
2019-06-20T07:41:41.365Z,38.95
2019-06-20T07:44:13.291Z,38.61
2019-06-20T07:46:44.594Z,38.73
2019-06-20T07:49:15.927Z,38.73
2019-06-20T07:51:46.974Z,38.56
2019-06-20T07:54:18.046Z,38.75
2019-06-20T07:56:49.114Z,38.69
2019-06-20T07:59:20.742Z,38.56
2019-06-20T08:01:52.022Z,38.78
2019-06-20T08:04:23.328Z,38.57
2019-06-20T08:06:54.375Z,38.28
2019-06-20T08:09:43.664Z,38.38
2019-06-20T08:11:59.541Z,38.65
2019-06-20T08:14:30.330Z,38.70
2019-06-20T08:17:01.325Z,38.33
2019-06-20T08:19:32.181Z,38.60
2019-06-20T08:22:03.041Z,38.52
2019-06-20T08:24:33.731Z,38.67
2019-06-20T08:27:04.943Z,38.65
2019-06-20T08:29:35.643Z,38.26
2019-06-20T08:32:06.645Z,38.08
2019-06-20T08:34:37.555Z,37.75
2019-06-20T08:37:08.226Z,38.27
2019-06-20T08:39:39.082Z,38.07
2019-06-20T08:42:09.933Z,38.03
2019-06-20T08:44:40.619Z,38.20
2019-06-20T08:47:11.485Z,38.48
2019-06-20T08:49:42.275Z,38.39
2019-06-20T08:52:13.448Z,37.93
2019-06-20T08:54:46.014Z,37.58
2019-06-20T08:57:16.801Z,38.10
2019-06-20T08:59:47.613Z,38.35
2019-06-20T09:02:18.452Z,38.57
2019-06-20T09:04:49.893Z,38.84
2019-06-20T09:07:20.840Z,39.06
2019-06-20T09:09:52.975Z,38.80
2019-06-20T09:12:25.841Z,38.79
2019-06-20T09:14:56.927Z,38.86
2019-06-20T09:17:29.851Z,38.70
2019-06-20T09:20:00.680Z,38.77
2019-06-20T09:22:31.647Z,39.34
2019-06-20T09:25:02.953Z,39.19
2019-06-20T09:27:33.734Z,39.16
2019-06-20T09:30:09.641Z,38.85
2019-06-20T09:32:41.085Z,39.31
2019-06-20T09:35:12.391Z,39.25
2019-06-20T09:37:43.212Z,39.45
2019-06-20T09:40:14.301Z,39.31
2019-06-20T09:42:44.986Z,39.46
2019-06-20T09:45:17.637Z,39.10
2019-06-20T09:47:50.414Z,39.12
2019-06-20T09:50:21.521Z,38.58
2019-06-20T09:52:53.702Z,39.29
2019-06-20T09:55:25.019Z,38.94
2019-06-20T09:57:58.657Z,39.19
2019-06-20T10:00:30.513Z,38.56
2019-06-20T10:03:01.617Z,38.57
2019-06-20T10:05:32.354Z,38.92
2019-06-20T10:08:03.134Z,38.73
2019-06-20T10:10:34.673Z,38.39
2019-06-20T10:13:05.749Z,38.51
2019-06-20T10:15:39.211Z,37.98
2019-06-20T10:18:12.763Z,37.85
2019-06-20T10:20:44.390Z,37.98
2019-06-20T10:23:16.767Z,38.09
2019-06-20T10:25:49.295Z,37.63
2019-06-20T10:28:20.215Z,37.73
2019-06-20T10:30:53.429Z,37.28
2019-06-20T10:33:25.658Z,36.82
2019-06-20T10:35:57.304Z,36.93
2019-06-20T10:38:28.389Z,37.08
2019-06-20T10:41:00.086Z,37.30
2019-06-20T10:43:31.221Z,37.02
2019-06-20T10:46:04.034Z,37.36
2019-06-20T10:48:34.791Z,37.05
2019-06-20T10:51:23.931Z,36.69
2019-06-20T10:53:55.014Z,36.69
2019-06-20T10:56:25.583Z,36.98
2019-06-20T10:58:56.525Z,37.11
2019-06-20T11:01:27.864Z,37.18
2019-06-20T11:04:00.649Z,37.34
2019-06-20T11:06:31.944Z,36.98
2019-06-20T11:09:02.618Z,36.85
2019-06-20T11:11:38.350Z,36.76
2019-06-20T11:14:14.032Z,36.93
2019-06-20T11:16:49.218Z,36.78
2019-06-20T11:19:20.377Z,36.46
2019-06-20T11:21:51.437Z,36.38
2019-06-20T11:24:23.967Z,36.49
2019-06-20T11:26:55.081Z,36.63
2019-06-20T11:29:27.006Z,36.84
2019-06-20T11:32:01.399Z,36.62
2019-06-20T11:34:37.697Z,36.48
2019-06-20T11:37:08.155Z,36.40
2019-06-20T11:39:38.985Z,36.46
2019-06-20T11:42:09.731Z,36.19
2019-06-20T11:44:40.886Z,36.48
2019-06-20T11:47:11.858Z,36.41
2019-06-20T11:49:42.611Z,36.34
2019-06-20T11:52:13.580Z,36.52
2019-06-20T11:54:44.575Z,36.44
2019-06-20T11:57:15.294Z,36.38
2019-06-20T11:59:46.225Z,36.72
2019-06-20T12:02:17.779Z,36.53
2019-06-20T12:04:49.148Z,36.27
2019-06-20T12:07:20.651Z,35.83
2019-06-20T12:09:51.426Z,36.18
2019-06-20T12:12:22.199Z,36.42
2019-06-20T12:14:53.780Z,36.08
2019-06-20T12:17:24.500Z,36.32
2019-06-20T12:19:55.156Z,36.38
2019-06-20T12:22:25.854Z,36.54
2019-06-20T12:24:57.739Z,36.82
2019-06-20T12:27:29.126Z,36.83
2019-06-20T12:29:59.868Z,36.87
2019-06-20T12:32:30.574Z,36.64
2019-06-20T12:35:01.857Z,36.58
2019-06-20T12:37:34.955Z,36.53
2019-06-20T12:40:09.884Z,36.57
2019-06-20T12:42:43.211Z,36.07
2019-06-20T12:45:15.946Z,36.01
2019-06-20T12:47:47.658Z,36.27
2019-06-20T12:50:19.647Z,36.58
2019-06-20T12:52:50.661Z,36.37
2019-06-20T12:55:22.072Z,36.32
2019-06-20T12:57:53.574Z,36.25
2019-06-20T13:00:25.272Z,36.28
2019-06-20T13:02:56.639Z,36.52
2019-06-20T13:05:28.155Z,36.61
2019-06-20T13:07:59.295Z,36.66
2019-06-20T13:10:30.000Z,36.63
2019-06-20T13:13:00.839Z,36.38
2019-06-20T13:15:31.757Z,36.47
2019-06-20T13:18:02.803Z,36.56
2019-06-20T13:20:35.483Z,36.63
2019-06-20T13:23:06.422Z,36.80
2019-06-20T13:25:37.726Z,37.04
2019-06-20T13:28:10.438Z,36.85
2019-06-20T13:30:46.886Z,36.72
2019-06-20T13:33:14.978Z,36.53
2019-06-20T13:35:46.714Z,36.69
2019-06-20T13:38:17.513Z,36.26
2019-06-20T13:40:49.380Z,35.95
2019-06-20T13:43:21.134Z,35.70
2019-06-20T13:45:52.615Z,34.49
2019-06-20T13:48:23.234Z,33.84
2019-06-20T13:50:53.928Z,33.79
2019-06-20T13:53:25.540Z,33.70
2019-06-20T13:55:56.459Z,33.86
2019-06-20T13:58:27.179Z,33.85
2019-06-20T14:00:57.863Z,34.16
2019-06-20T14:03:28.543Z,33.79
2019-06-20T14:06:00.469Z,33.71
2019-06-20T14:08:32.623Z,33.17
2019-06-20T14:11:03.536Z,32.87
2019-06-20T14:13:34.985Z,32.72
2019-06-20T14:16:06.617Z,32.90
2019-06-20T14:18:37.466Z,33.00
2019-06-20T14:21:10.477Z,33.02
2019-06-20T14:23:42.889Z,32.99
2019-06-20T14:26:14.481Z,32.84
2019-06-20T14:28:46.102Z,32.52
2019-06-20T14:31:16.970Z,32.61
2019-06-20T14:33:48.511Z,32.62
2019-06-20T14:36:21.628Z,32.54
2019-06-20T14:38:53.850Z,32.43
2019-06-20T14:41:24.770Z,32.41
2019-06-20T14:43:56.589Z,32.19
2019-06-20T14:46:27.267Z,30.72
2019-06-20T14:48:58.400Z,29.68
2019-06-20T14:51:29.354Z,28.92
2019-06-20T14:54:03.385Z,28.59
2019-06-20T14:56:34.250Z,28.30
2019-06-20T14:59:06.222Z,28.54
2019-06-20T15:01:36.930Z,28.51
2019-06-20T15:04:07.731Z,28.38
2019-06-20T15:06:39.574Z,28.42
2019-06-20T15:09:11.339Z,28.34
2019-06-20T15:11:45.807Z,28.51
2019-06-20T15:14:16.105Z,28.43
2019-06-20T15:16:48.333Z,28.33
2019-06-20T15:19:19.464Z,28.32
2019-06-20T15:21:50.254Z,28.33
2019-06-20T15:24:21.861Z,28.03
2019-06-20T15:26:52.632Z,27.94
2019-06-20T15:29:23.378Z,27.74
2019-06-20T15:31:54.820Z,27.80
2019-06-20T15:34:25.995Z,27.73
2019-06-20T15:36:57.802Z,27.53
2019-06-20T15:39:29.658Z,27.28
2019-06-20T15:42:00.443Z,27.27
2019-06-20T15:44:31.132Z,27.08
2019-06-20T15:47:03.017Z,27.31
2019-06-20T15:49:33.844Z,27.27
2019-06-20T15:52:07.463Z,27.24
2019-06-20T15:54:38.257Z,27.62
2019-06-20T15:57:09.048Z,27.84
2019-06-20T15:59:42.158Z,27.65
2019-06-20T16:02:12.863Z,27.74
2019-06-20T16:04:43.749Z,27.92
2019-06-20T16:07:14.679Z,28.22
2019-06-20T16:09:46.449Z,28.30
2019-06-20T16:12:17.975Z,28.77
2019-06-20T16:14:50.544Z,28.84
2019-06-20T16:17:21.311Z,29.01
2019-06-20T16:19:52.878Z,29.36
2019-06-20T16:22:23.947Z,29.38
2019-06-20T16:24:55.293Z,29.62
2019-06-20T16:27:26.719Z,29.70
2019-06-20T16:29:58.391Z,29.73
2019-06-20T16:32:29.187Z,29.78
2019-06-20T16:34:59.849Z,29.43
2019-06-20T16:37:30.720Z,29.19
2019-06-20T16:40:01.517Z,29.41
2019-06-20T16:42:33.298Z,29.47
2019-06-20T16:45:08.179Z,29.25
2019-06-20T16:47:39.501Z,29.60
2019-06-20T16:50:12.042Z,29.09
2019-06-20T16:52:43.927Z,28.84
2019-06-20T16:55:14.962Z,28.94
2019-06-20T16:57:45.751Z,29.29
2019-06-20T17:00:18.627Z,29.22
2019-06-20T17:02:49.833Z,29.16
2019-06-20T17:05:21.236Z,29.26
2019-06-20T17:07:52.412Z,29.07
2019-06-20T17:10:23.884Z,28.92
2019-06-20T17:12:55.294Z,28.81
2019-06-20T17:15:26.578Z,29.11
2019-06-20T17:17:58.273Z,29.22
2019-06-20T17:20:29.209Z,29.45
2019-06-20T17:23:00.368Z,29.56
2019-06-20T17:25:31.424Z,29.48
2019-06-20T17:28:03.517Z,29.44
2019-06-20T17:30:36.382Z,29.48
2019-06-20T17:33:07.938Z,29.40
2019-06-20T17:35:39.567Z,29.38
2019-06-20T17:38:10.393Z,29.11
2019-06-20T17:40:42.123Z,29.12
2019-06-20T17:43:13.591Z,29.10
2019-06-20T17:45:44.949Z,29.11
2019-06-20T17:48:16.217Z,29.34
2019-06-20T17:50:47.365Z,29.28
2019-06-20T17:53:18.259Z,29.15
2019-06-20T17:55:50.128Z,29.13
2019-06-20T17:58:21.199Z,29.13
2019-06-20T18:00:52.175Z,29.24
2019-06-20T18:03:23.602Z,29.49
2019-06-20T18:05:54.890Z,29.49
2019-06-20T18:08:25.958Z,29.48
2019-06-20T18:10:57.326Z,29.58
2019-06-20T18:13:28.159Z,29.59
2019-06-20T18:15:58.948Z,29.62
2019-06-20T18:18:29.619Z,29.74
2019-06-20T18:21:00.532Z,29.68
2019-06-20T18:23:31.632Z,29.74
2019-06-20T18:26:03.229Z,29.71
2019-06-20T18:28:34.474Z,29.79
2019-06-20T18:31:05.361Z,29.84
2019-06-20T18:33:36.437Z,29.87
2019-06-20T18:36:07.576Z,29.89
2019-06-20T18:38:38.613Z,29.91
2019-06-20T18:41:09.582Z,30.06
2019-06-20T18:43:40.517Z,30.07
2019-06-20T18:46:11.323Z,29.83
2019-06-20T18:48:42.014Z,29.73
2019-06-20T18:51:12.796Z,29.80
2019-06-20T18:53:43.962Z,29.77
2019-06-20T18:56:14.862Z,29.83
2019-06-20T18:58:45.571Z,29.39
2019-06-20T19:01:16.531Z,28.99
2019-06-20T19:03:47.608Z,29.25
2019-06-20T19:06:34.814Z,28.96
2019-06-20T19:08:51.193Z,28.93
2019-06-20T19:11:22.413Z,29.00
2019-06-20T19:13:53.625Z,28.93
2019-06-20T19:16:24.714Z,28.86
2019-06-20T19:19:01.089Z,28.61
2019-06-20T19:21:32.388Z,28.33
2019-06-20T19:24:03.311Z,27.98
2019-06-20T19:26:34.428Z,27.87
2019-06-20T19:29:05.707Z,27.62
2019-06-20T19:31:36.428Z,27.61
2019-06-20T19:34:07.638Z,27.59
2019-06-20T19:36:41.071Z,27.56
2019-06-20T19:39:11.598Z,27.56
2019-06-20T19:41:43.959Z,27.54
2019-06-20T19:44:15.883Z,27.60
2019-06-20T19:46:46.859Z,27.54
2019-06-20T19:49:19.475Z,27.26
2019-06-20T19:51:50.977Z,27.10
2019-06-20T19:54:22.119Z,26.96
2019-06-20T19:56:53.433Z,26.90
2019-06-20T19:59:24.495Z,26.90
2019-06-20T20:01:57.185Z,26.85
2019-06-20T20:04:28.637Z,27.09
2019-06-20T20:07:00.415Z,27.21
2019-06-20T20:09:31.330Z,27.06
2019-06-20T20:12:02.440Z,26.82
2019-06-20T20:14:33.328Z,26.68
2019-06-20T20:17:04.285Z,26.69
2019-06-20T20:19:39.759Z,26.58
2019-06-20T20:22:11.305Z,26.52
2019-06-20T20:24:42.359Z,26.19
2019-06-20T20:27:15.203Z,26.00
2019-06-20T20:29:46.253Z,25.79
2019-06-20T20:32:17.681Z,25.82
2019-06-20T20:34:49.080Z,25.67
2019-06-20T20:37:20.040Z,25.64
2019-06-20T20:39:51.361Z,25.59
2019-06-20T20:42:24.062Z,25.34
2019-06-20T20:44:55.461Z,25.40
2019-06-20T20:47:28.521Z,25.31
2019-06-20T20:50:00.663Z,25.27
2019-06-20T20:52:32.038Z,25.10
2019-06-20T20:55:07.635Z,25.03
2019-06-20T20:57:39.193Z,25.08
2019-06-20T21:00:13.770Z,25.00
2019-06-20T21:02:48.905Z,25.00
2019-06-20T21:05:20.290Z,25.02
2019-06-20T21:07:51.453Z,24.97
2019-06-20T21:10:22.993Z,25.04
2019-06-20T21:12:54.286Z,24.93
2019-06-20T21:15:25.740Z,24.91
2019-06-20T21:17:56.516Z,24.91
2019-06-20T21:20:29.358Z,24.87
2019-06-20T21:23:01.235Z,24.76
2019-06-20T21:25:32.866Z,24.71
2019-06-20T21:28:03.711Z,24.51
2019-06-20T21:30:34.507Z,24.41
2019-06-20T21:33:05.326Z,24.42
2019-06-20T21:35:35.991Z,24.39
2019-06-20T21:38:06.751Z,24.45
2019-06-20T21:40:38.002Z,24.38
2019-06-20T21:43:09.487Z,24.36
2019-06-20T21:45:41.005Z,24.36
2019-06-20T21:48:12.305Z,24.27
2019-06-20T21:50:44.278Z,24.24
2019-06-20T21:53:15.169Z,24.14
2019-06-20T21:55:45.868Z,24.18
2019-06-20T21:58:16.975Z,24.13
2019-06-20T22:00:50.793Z,24.11
2019-06-20T22:03:24.049Z,24.01
2019-06-20T22:05:54.982Z,23.82
2019-06-20T22:08:25.655Z,23.88
2019-06-20T22:10:56.488Z,23.92
2019-06-20T22:13:27.488Z,23.92
2019-06-20T22:15:58.338Z,24.01
2019-06-20T22:18:29.013Z,24.01
2019-06-20T22:20:59.867Z,23.83
2019-06-20T22:23:30.616Z,23.68
2019-06-20T22:26:01.313Z,23.72
2019-06-20T22:28:34.273Z,23.78
2019-06-20T22:31:05.301Z,23.90
2019-06-20T22:33:35.974Z,23.72
2019-06-20T22:36:06.782Z,23.65
2019-06-20T22:38:37.458Z,23.68
2019-06-20T22:41:08.118Z,23.75
2019-06-20T22:43:38.998Z,23.62
2019-06-20T22:46:09.666Z,23.51
2019-06-20T22:48:40.422Z,23.54
2019-06-20T22:51:13.779Z,23.62
2019-06-20T22:53:43.665Z,23.56
2019-06-20T22:56:14.586Z,23.54
2019-06-20T22:58:45.444Z,23.40
2019-06-20T23:01:16.130Z,23.40
2019-06-20T23:03:46.902Z,23.32
2019-06-20T23:06:17.677Z,23.31
2019-06-20T23:08:49.765Z,23.36
2019-06-20T23:11:20.618Z,23.36
2019-06-20T23:13:51.403Z,23.35
2019-06-20T23:16:22.307Z,23.37
2019-06-20T23:18:53.099Z,23.43
2019-06-20T23:21:23.767Z,23.33
2019-06-20T23:23:54.457Z,23.38
2019-06-20T23:26:25.262Z,23.30
2019-06-20T23:29:14.181Z,23.26
2019-06-20T23:31:44.858Z,23.31
2019-06-20T23:34:15.633Z,23.45
2019-06-20T23:36:46.477Z,23.36
2019-06-20T23:39:17.385Z,23.30
2019-06-20T23:41:48.172Z,23.31
2019-06-20T23:44:18.834Z,23.22
2019-06-20T23:46:49.619Z,23.06
2019-06-20T23:49:20.477Z,22.86
2019-06-20T23:52:07.850Z,22.92
2019-06-20T23:54:38.619Z,22.79
2019-06-20T23:57:09.319Z,22.72
2019-06-20T23:59:40.028Z,22.72
